Latest Coastal Weather Observations for Portland Harbour

IDS60701

Issued at 8:01 pm CDT Thursday 23 February 2017 (issued every 10 minutes, with the page automatically refreshed every 10 minutes)

About coastal observations | Map of coastal stations | Coastal observations for SA | Marine services | Other Formats
Station Details ID: 090192 Name: PORTLAND NTC AWS Lat: -38.34 Lon: 141.61 Height: 0.0 m
Data from the previous 72 hours. | See also: Recent months for locations in South Australia
Date/Time
CDT
Temp
°C
Wind Pressure Rain since
9am
mm
Weather Cloud Vis
km
Sea
Height
m
Swell
Dir  Spd
kts
Gust
kts
hPa Trend Height
m
Period
s
Dir
23/08:00pm 16.4 SSW 6 9 1022.3 - - - - - - - - -
23/07:30pm 16.3 SSW 5 7 1021.9 - - - - - - - - -
23/07:00pm 16.6 SW 10 13 1021.5 - - - - - - - - -
23/06:30pm 16.3 SW 8 11 1021.4 - - - - - - - - -
23/06:00pm 16.9 SW 11 15 1021.1 - - - - - - - - -
23/05:30pm 16.6 SW 10 14 1021.0 - - - - - - - - -
23/05:00pm 16.6 SW 10 14 1020.6 - - - - - - - - -
23/04:30pm 16.5 SW 11 16 1020.5 - - - - - - - - -
23/04:00pm 16.3 WSW 11 16 1020.3 - - - - - - - - -
23/03:30pm 16.2 SW 11 15 1020.2 - - - - - - - - -
23/03:00pm 16.7 SW 11 14 1020.0 - - - - - - - - -
23/02:30pm 16.6 SW 10 13 1019.7 - - - - - - - - -
23/02:00pm 17.1 SW 12 16 1019.5 - - - - - - - - -
23/01:30pm 18.0 SW 9 13 1019.1 - - - - - - - - -
23/01:00pm 17.5 SW 9 13 1019.0 - - - - - - - - -
23/12:30pm 17.1 SW 12 17 1018.9 - - - - - - - - -
23/12:00pm 17.6 SW 12 18 1018.9 - - - - - - - - -
23/11:30am 17.6 SW 13 17 1018.7 - - - - - - - - -
23/11:00am 17.6 SW 12 17 1018.3 - - - - - - - - -
23/10:30am 16.6 WSW 15 21 1018.0 - - - - - - - - -
23/10:00am 17.8 SW 16 23 1017.4 - - - - - - - - -
23/09:30am 17.6 WSW 17 24 1017.2 - - - - - - - - -
23/09:00am 16.9 WSW 12 17 1016.8 - - - - - - - - -
23/08:30am 16.5 WSW 15 23 1016.3 - - - - - - - - -
23/08:00am 17.7 W 11 17 1015.7 - - - - - - - - -
23/07:30am 17.5 WSW 11 17 1015.1 - - - - - - - - -
23/07:00am 17.2 W 13 21 1014.5 - - - - - - - - -
23/06:30am 16.9 W 16 24 1013.8 - - - - - - - - -
23/06:00am 17.5 W 12 20 1013.1 - - - - - - - - -
23/05:30am 17.4 W 11 16 1012.6 - - - - - - - - -
23/05:00am 17.4 W 14 22 1012.2 - - - - - - - - -
23/04:30am 17.5 W 14 23 1011.8 - - - - - - - - -
23/04:00am 17.4 WNW 16 27 1011.2 - - - - - - - - -
23/03:58am 17.4 WNW 15 26 1011.3 - - - - - - - - -
23/03:30am 17.6 WNW 18 27 1011.0 - - - - - - - - -
23/03:06am 17.4 WNW 15 27 1010.8 - - - - - - - - -
23/03:00am 17.4 WNW 15 23 1010.8 - - - - - - - - -
23/02:30am 17.5 WNW 16 24 1010.6 - - - - - - - - -
23/02:12am 17.6 WNW 15 26 1010.4 - - - - - - - - -
23/02:00am 17.8 WNW 17 24 1010.4 - - - - - - - - -
23/01:32am 18.1 WNW 17 27 1010.3 - - - - - - - - -
23/01:30am 18.2 WNW 18 28 1010.3 - - - - - - - - -
23/01:00am 18.6 WNW 21 31 1010.4 - - - - - - - - -
23/12:30am 18.7 WNW 16 26 1010.3 - - - - - - - - -
23/12:02am 18.8 WNW 21 31 1010.0 - - - - - - - - -
23/12:00am 18.9 WNW 22 31 1009.9 - - - - - - - - -
 
Date/Time
CDT
Temp
°C
Wind Pressure Rain since
9am
mm
Weather Cloud Vis
km
Sea
Height
m
Swell
Dir  Spd
kts
Gust
kts
hPa Trend Height
m
Period
s
Dir
22/11:32pm 19.1 WNW 18 29 1009.8 - - - - - - - - -
22/11:30pm 19.1 WNW 18 26 1009.9 - - - - - - - - -
22/11:00pm 19.4 WNW 17 26 1009.6 - - - - - - - - -
22/10:30pm 19.8 WNW 20 31 1009.6 - - - - - - - - -
22/10:05pm 20.3 WNW 16 27 1009.4 - - - - - - - - -
22/10:00pm 20.3 WNW 16 22 1009.5 - - - - - - - - -
22/09:37pm 20.7 WNW 15 26 1009.2 - - - - - - - - -
22/09:30pm 20.6 WNW 14 22 1009.4 - - - - - - - - -
22/09:00pm 21.1 NW 15 23 1008.8 - - - - - - - - -
22/08:33pm 21.4 WNW 17 30 1008.1 - - - - - - - - -
22/08:30pm 21.3 WNW 16 22 1008.2 - - - - - - - - -
22/08:00pm 21.8 WNW 15 24 1007.6 - - - - - - - - -
22/07:30pm 21.1 WNW 17 25 1006.7 - - - - - - - - -
22/07:00pm 20.6 WNW 18 31 1006.5 - - - - - - - - -
22/06:32pm 20.3 W 21 32 1006.7 - - - - - - - - -
22/06:30pm 20.3 W 21 30 1006.8 - - - - - - - - -
22/06:00pm 20.3 W 23 34 1006.6 - - - - - - - - -
22/05:31pm 20.3 W 21 31 1006.3 - - - - - - - - -
22/05:30pm 20.4 W 22 31 1006.4 - - - - - - - - -
22/05:00pm 20.7 W 23 33 1005.9 - - - - - - - - -
22/04:30pm 21.3 W 22 32 1005.3 - - - - - - - - -
22/04:00pm 22.7 W 19 34 1005.0 - - - - - - - - -
22/03:40pm 23.1 W 20 30 1005.1 - - - - - - - - -
22/03:30pm 23.6 W 22 30 1005.0 - - - - - - - - -
22/03:02pm 26.1 W 18 30 1005.0 - - - - - - - - -
22/03:00pm 26.1 WNW 19 27 1004.9 - - - - - - - - -
22/02:58pm 28.1 NW 18 27 1004.8 - - - - - - - - -
22/02:30pm 31.3 NNW 19 30 1004.6 - - - - - - - - -
22/02:08pm 30.6 NNW 24 34 1005.4 - - - - - - - - -
22/02:00pm 29.1 NNW 24 33 1005.4 - - - - - - - - -
22/01:30pm 28.9 N 25 36 1006.1 - - - - - - - - -
22/01:00pm 27.3 N 24 31 1006.6 - - - - - - - - -
22/12:30pm 27.2 N 27 37 1007.0 - - - - - - - - -
22/12:00pm 26.2 N 24 36 1007.6 - - - - - - - - -
22/11:47am 26.3 N 24 35 1007.8 - - - - - - - - -
22/11:30am 25.7 N 21 28 1007.9 - - - - - - - - -
22/11:00am 25.4 N 25 31 1008.3 - - - - - - - - -
22/10:30am 24.1 N 21 29 1008.6 - - - - - - - - -
22/10:00am 23.5 N 23 30 1009.1 - - - - - - - - -
22/09:30am 22.7 N 21 28 1009.5 - - - - - - - - -
22/09:00am 21.4 N 23 29 1009.8 - - - - - - - - -
22/08:30am 20.4 N 19 23 1010.4 - - - - - - - - -
22/08:00am 19.3 N 19 23 1010.4 - - - - - - - - -
22/07:30am 18.7 N 10 13 1010.6 - - - - - - - - -
22/07:00am 17.4 NE 7 9 1010.7 - - - - - - - - -
22/06:30am 17.4 NNE 7 9 1010.6 - - - - - - - - -
22/06:00am 17.6 NNE 6 7 1010.8 - - - - - - - - -
22/05:30am 17.6 NNE 7 9 1010.8 - - - - - - - - -
22/05:00am 17.5 NNE 8 9 1011.0 - - - - - - - - -
22/04:30am 17.3 NNE 5 8 1011.3 - - - - - - - - -
22/04:00am 17.0 N 1 5 1011.5 - - - - - - - - -
22/03:30am 17.0 ENE 3 4 1011.6 - - - - - - - - -
22/03:00am 16.6 ENE 6 7 1012.2 - - - - - - - - -
22/02:30am 16.7 NE 8 9 1012.5 - - - - - - - - -
22/02:00am 16.5 NE 7 9 1013.0 - - - - - - - - -
22/01:30am 16.8 NE 8 10 1013.4 - - - - - - - - -
22/01:00am 16.7 NE 6 7 1013.7 - - - - - - - - -
22/12:30am 16.8 NE 8 10 1014.2 - - - - - - - - -
22/12:00am 16.8 NE 6 7 1014.5 - - - - - - - - -
 
Date/Time
CDT
Temp
°C
Wind Pressure Rain since
9am
mm
Weather Cloud Vis
km
Sea
Height
m
Swell
Dir  Spd
kts
Gust
kts
hPa Trend Height
m
Period
s
Dir
21/11:30pm 16.9 NE 7 9 1015.0 - - - - - - - - -
21/11:00pm 17.3 ENE 8 9 1015.2 - - - - - - - - -
21/10:30pm 17.6 ENE 12 15 1015.7 - - - - - - - - -
21/10:00pm 17.6 ENE 12 15 1016.1 - - - - - - - - -
21/09:30pm 17.5 E 12 15 1016.3 - - - - - - - - -
21/09:00pm 17.4 E 12 15 1016.4 - - - - - - - - -
21/08:30pm 17.4 E 14 17 1016.2 - - - - - - - - -
21/08:00pm 17.6 E 13 16 1016.2 - - - - - - - - -
21/07:30pm 17.6 E 13 16 1016.3 - - - - - - - - -
21/07:00pm 17.6 E 12 15 1016.1 - - - - - - - - -
21/06:30pm 17.9 ESE 12 15 1016.3 - - - - - - - - -
21/06:00pm 17.7 ESE 11 14 1016.4 - - - - - - - - -
21/05:30pm 17.8 ESE 11 15 1016.5 - - - - - - - - -
21/05:00pm 17.7 ESE 12 14 1017.0 - - - - - - - - -
21/04:30pm 17.8 SE 11 15 1017.2 - - - - - - - - -
21/04:00pm 17.6 ESE 13 15 1017.4 - - - - - - - - -
21/03:30pm 17.5 ESE 13 15 1017.7 - - - - - - - - -
21/03:00pm 17.5 ESE 13 15 1018.1 - - - - - - - - -
21/02:30pm 17.5 ESE 11 13 1018.6 - - - - - - - - -
21/02:00pm 17.1 ESE 10 12 1019.1 - - - - - - - - -
21/01:30pm 17.3 ESE 9 11 1019.3 - - - - - - - - -
21/01:00pm 17.1 ESE 9 11 1019.7 - - - - - - - - -
21/12:30pm 16.8 ESE 8 10 1020.0 - - - - - - - - -
21/12:00pm 16.7 ESE 6 8 1020.9 - - - - - - - - -
21/11:30am 16.4 E 6 7 1020.9 - - - - - - - - -
21/11:00am 15.7 ENE 7 9 1021.0 - - - - - - - - -
21/10:30am 15.5 NE 5 7 1021.1 - - - - - - - - -
21/10:00am 15.6 NNE 4 7 1021.2 - - - - - - - - -
21/09:30am 15.1 N 6 8 1021.0 - - - - - - - - -
21/09:00am 14.8 N 4 6 1021.1 - - - - - - - - -
21/08:30am 14.2 CALM 0 1 1020.9 - - - - - - - - -
21/08:00am 12.0 NW 2 3 1020.8 - - - - - - - - -
21/07:30am 10.0 WNW 3 4 1020.7 - - - - - - - - -
21/07:00am 8.5 W 3 4 1020.1 - - - - - - - - -
21/06:30am 8.9 WSW 3 4 1019.8 - - - - - - - - -
21/06:00am 9.0 WSW 4 5 1019.5 - - - - - - - - -
21/05:30am 9.1 WSW 3 4 1019.3 - - - - - - - - -
21/05:00am 9.1 WSW 5 7 1019.3 - - - - - - - - -
21/04:30am 9.4 WSW 4 5 1019.0 - - - - - - - - -
21/04:00am 9.8 WSW 3 4 1018.8 - - - - - - - - -
21/03:30am 9.9 SW 4 4 1018.8 - - - - - - - - -
21/03:00am 10.2 SW 3 5 1018.8 - - - - - - - - -
21/02:30am 10.2 WSW 3 5 1018.9 - - - - - - - - -
21/02:00am 11.1 SW 4 5 1018.9 - - - - - - - - -
21/01:30am 10.9 WSW 3 4 1019.1 - - - - - - - - -
21/01:00am 11.5 WSW 3 5 1019.2 - - - - - - - - -
21/12:30am 12.4 WSW 4 5 1019.3 - - - - - - - - -
21/12:00am 12.3 SW 4 4 1019.4 - - - - - - - - -
 
Date/Time
CDT
Temp
°C
Wind Pressure Rain since
9am
mm
Weather Cloud Vis
km
Sea
Height
m
Swell
Dir  Spd
kts
Gust
kts
hPa Trend Height
m
Period
s
Dir
20/11:30pm 12.8 SW 4 4 1019.5 - - - - - - - - -
20/11:00pm 13.0 WSW 3 4 1019.6 - - - - - - - - -
20/10:30pm 13.3 WSW 3 4 1019.4 - - - - - - - - -
20/10:00pm 14.1 WSW 4 5 1019.2 - - - - - - - - -
20/09:30pm 14.3 SW 3 4 1019.2 - - - - - - - - -
20/09:00pm 14.7 SSW 4 5 1019.1 - - - - - - - - -
20/08:30pm 15.3 SW 5 7 1018.9 - - - - - - - - -
20/08:00pm 15.5 SSW 6 8 1018.5 - - - - - - - - -

Other Formats:

Comma delimited format used in spreadsheet applications
http://www.bom.gov.au/fwo/IDS60701/IDS60701.95826.axf

JavaScript Object Notation format (JSON) in row-major order
http://www.bom.gov.au/fwo/IDS60701/IDS60701.95826.json